Time;durP1;ratioP1;P1;durP2;ratioP2;P2;SDS_P1;SDS_P2;PMS_P1;PMS_P2;Temp;Humidity;BMP_temperature;BMP_pressure;BME280_temperature;BME280_humidity;BME280_pressure;Samples;Min_cycle;Max_cycle;Signal;HPM_P1;HPM_P2
2022/07/25 00:01:59;;;;;;;;;;;21.80;99.90;;;;;;4970025;28;19983;-87
2022/07/25 00:04:25;;;;;;;;;;;21.90;99.90;;;;;;4970777;28;19922;-83
2022/07/25 00:06:51;;;;;;;;;;;21.90;99.90;;;;;;4954299;28;20021;-86
2022/07/25 00:09:16;;;;;;;;;;;21.90;99.90;;;;;;4955024;28;19936;-85
2022/07/25 00:11:42;;;;;;;;;;;21.80;99.90;;;;;;4956417;28;19984;-87
2022/07/25 00:14:10;;;;;;;;;;;21.80;99.90;;;;;;4971794;28;20012;-89
2022/07/25 00:16:36;;;;;;;;;;;21.90;99.90;;;;;;4956894;28;20016;-87
2022/07/25 00:19:02;;;;;;;;;;;21.80;99.90;;;;;;4970835;28;20520;-85
2022/07/25 00:21:29;;;;;;;;;;;21.90;99.90;;;;;;4977192;28;19984;-88
2022/07/25 00:23:55;;;;;;;;;;;21.80;99.90;;;;;;4957559;28;20048;-85
2022/07/25 00:26:20;;;;;;;;;;;21.80;99.90;;;;;;4973348;28;20009;-84
2022/07/25 00:28:46;;;;;;;;;;;21.80;99.90;;;;;;4979347;28;19930;-87
2022/07/25 00:31:12;;;;;;;;;;;21.80;99.90;;;;;;4972305;28;20045;-86
2022/07/25 00:33:39;;;;;;;;;;;21.80;99.90;;;;;;4955778;28;19926;-89
2022/07/25 00:36:05;;;;;;;;;;;21.80;99.90;;;;;;4961658;28;19952;-88
2022/07/25 00:38:31;;;;;;;;;;;21.80;99.90;;;;;;4969996;28;19925;-82
2022/07/25 00:40:57;;;;;;;;;;;21.80;99.90;;;;;;4938383;28;19957;-83
2022/07/25 00:43:23;;;;;;;;;;;21.70;99.90;;;;;;4952255;28;19941;-83
2022/07/25 00:45:49;;;;;;;;;;;21.70;99.90;;;;;;4950444;28;19929;-81
2022/07/25 00:48:15;;;;;;;;;;;21.70;99.90;;;;;;4966993;28;20037;-87
2022/07/25 00:50:41;;;;;;;;;;;21.70;99.90;;;;;;4959001;28;19952;-88
2022/07/25 00:53:07;;;;;;;;;;;21.70;99.90;;;;;;4964237;28;20243;-89
2022/07/25 00:55:33;;;;;;;;;;;21.70;99.90;;;;;;4956549;28;19932;-86
2022/07/25 00:57:59;;;;;;;;;;;21.60;99.90;;;;;;4947836;28;19930;-83
2022/07/25 01:00:25;;;;;;;;;;;21.60;99.90;;;;;;4954065;28;19926;-82
2022/07/25 01:02:50;;;;;;;;;;;21.60;99.90;;;;;;4957769;28;19926;-83
2022/07/25 01:05:16;;;;;;;;;;;21.60;99.90;;;;;;4974637;28;20300;-85
2022/07/25 01:07:43;;;;;;;;;;;21.50;99.90;;;;;;4970021;28;19968;-89
2022/07/25 01:10:10;;;;;;;;;;;21.50;99.90;;;;;;4952279;28;19930;-84
2022/07/25 01:12:43;;;;;;;;;;;21.50;99.90;;;;;;4969055;28;19957;-87
2022/07/25 01:15:09;;;;;;;;;;;21.40;99.90;;;;;;4960796;28;19929;-84
2022/07/25 01:17:36;;;;;;;;;;;21.40;99.90;;;;;;4946940;28;19941;-84
2022/07/25 01:20:02;;;;;;;;;;;21.40;99.90;;;;;;4961861;28;19930;-84
2022/07/25 01:22:29;;;;;;;;;;;21.40;99.90;;;;;;4969209;28;19926;-85
2022/07/25 01:24:55;;;;;;;;;;;21.40;99.90;;;;;;4954381;28;19933;-85
2022/07/25 01:27:21;;;;;;;;;;;21.40;99.90;;;;;;4988751;28;19926;-86
2022/07/25 01:29:46;;;;;;;;;;;21.40;99.90;;;;;;4969969;28;19926;-84
2022/07/25 01:32:12;;;;;;;;;;;21.30;99.90;;;;;;4946252;28;19956;-84
2022/07/25 01:34:38;;;;;;;;;;;21.30;99.90;;;;;;4938356;28;19933;-88
2022/07/25 01:37:04;;;;;;;;;;;21.30;99.90;;;;;;4957359;28;19930;-84
2022/07/25 01:39:30;;;;;;;;;;;21.30;99.90;;;;;;4973374;28;20012;-81
2022/07/25 01:41:55;;;;;;;;;;;21.30;99.90;;;;;;4958057;28;19925;-79
2022/07/25 01:44:21;;;;;;;;;;;21.20;99.90;;;;;;4973995;28;19926;-81
2022/07/25 01:46:47;;;;;;;;;;;21.20;99.90;;;;;;4956418;28;20042;-86
2022/07/25 01:49:15;;;;;;;;;;;21.10;99.90;;;;;;4974334;28;20413;-85
2022/07/25 01:51:41;;;;;;;;;;;21.20;99.90;;;;;;4970840;28;20000;-81
2022/07/25 01:54:06;;;;;;;;;;;21.10;99.90;;;;;;4972215;28;20381;-83
2022/07/25 01:56:32;;;;;;;;;;;21.10;99.90;;;;;;4974198;28;19931;-82
2022/07/25 01:58:58;;;;;;;;;;;21.10;99.90;;;;;;4972830;28;19925;-82
2022/07/25 02:01:24;;;;;;;;;;;21.10;99.90;;;;;;4972720;28;19933;-86
2022/07/25 02:03:50;;;;;;;;;;;21.00;99.90;;;;;;4973520;28;19930;-83
2022/07/25 02:08:50;;;;;;;;;;;21.00;99.90;;;;;;5054708;23;19934;-77
2022/07/25 02:11:17;;;;;;;;;;;21.00;99.90;;;;;;4944680;28;19926;-80
2022/07/25 02:13:43;;;;;;;;;;;21.00;99.90;;;;;;4969861;28;19938;-79
2022/07/25 02:16:10;;;;;;;;;;;20.90;99.90;;;;;;4963549;28;19933;-78
2022/07/25 02:18:37;;;;;;;;;;;20.90;99.90;;;;;;4973401;28;20065;-84
2022/07/25 02:21:06;;;;;;;;;;;20.90;99.90;;;;;;4971261;28;20032;-82
2022/07/25 02:23:32;;;;;;;;;;;20.90;99.90;;;;;;4978759;28;19918;-78
2022/07/25 02:26:16;;;;;;;;;;;20.90;99.90;;;;;;4964223;28;19969;-78
2022/07/25 02:32:00;;;;;;;;;;;20.80;99.90;;;;;;4983825;28;19929;-78
2022/07/25 02:34:29;;;;;;;;;;;20.70;99.90;;;;;;4966976;28;20289;-78
2022/07/25 02:36:55;;;;;;;;;;;20.60;99.90;;;;;;4973630;28;19933;-78
2022/07/25 02:39:21;;;;;;;;;;;20.60;99.90;;;;;;4972306;28;20503;-78
2022/07/25 02:41:48;;;;;;;;;;;20.60;99.90;;;;;;4953271;28;19965;-77
2022/07/25 02:44:14;;;;;;;;;;;20.60;99.90;;;;;;4940848;28;19933;-78
2022/07/25 02:46:39;;;;;;;;;;;20.60;99.90;;;;;;4951449;28;19934;-77
2022/07/25 02:49:05;;;;;;;;;;;20.60;99.90;;;;;;4962223;28;19983;-79
2022/07/25 02:51:31;;;;;;;;;;;20.60;99.90;;;;;;4971958;28;19994;-77
2022/07/25 02:53:57;;;;;;;;;;;20.60;99.90;;;;;;4948257;28;19983;-77
2022/07/25 02:56:22;;;;;;;;;;;20.50;99.90;;;;;;4971384;28;19926;-77
2022/07/25 02:58:50;;;;;;;;;;;20.60;99.90;;;;;;4964430;28;19930;-80
2022/07/25 03:01:15;;;;;;;;;;;20.60;99.90;;;;;;4939720;28;19933;-78
2022/07/25 03:03:41;;;;;;;;;;;20.60;99.90;;;;;;4971485;28;19925;-78
2022/07/25 03:06:07;;;;;;;;;;;20.60;99.90;;;;;;4972947;28;19980;-76
2022/07/25 03:08:33;;;;;;;;;;;20.60;99.90;;;;;;4953972;28;19934;-78
2022/07/25 03:11:00;;;;;;;;;;;20.60;99.90;;;;;;4975326;28;20645;-77
2022/07/25 03:13:25;;;;;;;;;;;20.60;99.90;;;;;;4955404;28;19933;-78
2022/07/25 03:15:51;;;;;;;;;;;20.60;99.90;;;;;;4965389;28;19921;-78
2022/07/25 03:18:17;;;;;;;;;;;20.60;99.90;;;;;;4954256;28;20301;-77
2022/07/25 03:20:43;;;;;;;;;;;20.50;99.90;;;;;;4955352;28;19949;-78
2022/07/25 03:23:09;;;;;;;;;;;20.50;99.90;;;;;;4970943;28;19985;-78
2022/07/25 03:25:35;;;;;;;;;;;20.50;99.90;;;;;;4949646;28;19933;-77
2022/07/25 03:28:01;;;;;;;;;;;20.50;99.90;;;;;;4952897;28;20045;-78
2022/07/25 03:30:26;;;;;;;;;;;20.50;99.90;;;;;;4965627;28;19922;-78
2022/07/25 03:32:53;;;;;;;;;;;20.50;99.90;;;;;;4938922;28;19930;-77
2022/07/25 03:35:19;;;;;;;;;;;20.50;99.90;;;;;;4954875;28;19930;-76
2022/07/25 03:37:45;;;;;;;;;;;20.50;99.90;;;;;;4969047;28;19937;-79
2022/07/25 03:40:12;;;;;;;;;;;20.50;99.90;;;;;;4970576;28;19936;-77
2022/07/25 03:42:38;;;;;;;;;;;20.50;99.90;;;;;;4971249;28;20313;-78
2022/07/25 03:45:04;;;;;;;;;;;20.50;99.90;;;;;;4969116;28;19977;-77
2022/07/25 03:47:31;;;;;;;;;;;20.40;99.90;;;;;;4938501;28;20023;-78
2022/07/25 03:50:03;;;;;;;;;;;20.40;99.90;;;;;;4955008;28;19926;-78
2022/07/25 03:52:28;;;;;;;;;;;20.40;99.90;;;;;;4969642;28;19932;-78
2022/07/25 03:54:54;;;;;;;;;;;20.30;99.90;;;;;;4953882;28;20686;-77
2022/07/25 03:57:21;;;;;;;;;;;20.30;99.90;;;;;;4951828;28;19938;-77
2022/07/25 03:59:48;;;;;;;;;;;20.30;99.90;;;;;;4953358;28;19926;-77
2022/07/25 04:02:14;;;;;;;;;;;20.30;99.90;;;;;;4953810;28;19933;-76
2022/07/25 04:04:45;;;;;;;;;;;20.20;99.90;;;;;;4936384;28;19937;-77
2022/07/25 04:07:11;;;;;;;;;;;20.20;99.90;;;;;;4950817;28;19926;-77
2022/07/25 04:09:37;;;;;;;;;;;20.20;99.90;;;;;;4967911;28;20581;-77
2022/07/25 04:12:04;;;;;;;;;;;20.20;99.90;;;;;;4951340;28;19926;-77
2022/07/25 04:14:30;;;;;;;;;;;20.20;99.90;;;;;;4958075;28;19936;-77
2022/07/25 04:16:56;;;;;;;;;;;20.20;99.90;;;;;;4953284;28;19935;-77
2022/07/25 04:19:40;;;;;;;;;;;20.10;99.90;;;;;;4956455;28;20372;-77
2022/07/25 04:22:06;;;;;;;;;;;20.10;99.90;;;;;;4968506;28;19929;-78
2022/07/25 04:24:32;;;;;;;;;;;20.10;99.90;;;;;;4958374;28;19926;-77
2022/07/25 04:26:57;;;;;;;;;;;20.00;99.90;;;;;;4954378;28;20353;-79
2022/07/25 04:29:23;;;;;;;;;;;20.00;99.90;;;;;;4951149;28;20272;-77
2022/07/25 04:31:49;;;;;;;;;;;20.00;99.90;;;;;;4935170;28;20663;-76
2022/07/25 04:34:15;;;;;;;;;;;20.00;99.90;;;;;;4969816;28;19926;-77
2022/07/25 04:36:41;;;;;;;;;;;20.00;99.90;;;;;;4991076;28;19922;-78
2022/07/25 04:39:06;;;;;;;;;;;20.10;99.90;;;;;;4933327;28;19951;-80
2022/07/25 04:41:32;;;;;;;;;;;20.10;99.90;;;;;;4953516;28;19929;-76
2022/07/25 04:43:59;;;;;;;;;;;20.00;99.90;;;;;;4954590;28;19977;-77
2022/07/25 04:46:24;;;;;;;;;;;20.10;99.90;;;;;;4970087;28;19929;-78
2022/07/25 04:48:50;;;;;;;;;;;20.10;99.90;;;;;;4951060;28;19929;-78
2022/07/25 04:51:35;;;;;;;;;;;20.20;99.90;;;;;;4953733;28;19932;-83
2022/07/25 04:54:01;;;;;;;;;;;20.30;99.90;;;;;;4950897;28;19929;-78
2022/07/25 04:56:27;;;;;;;;;;;20.40;99.90;;;;;;4952870;28;19926;-76
2022/07/25 04:58:52;;;;;;;;;;;20.40;99.90;;;;;;4953264;28;20315;-76
2022/07/25 05:01:18;;;;;;;;;;;20.50;99.90;;;;;;4952006;28;20431;-79
2022/07/25 05:03:44;;;;;;;;;;;20.50;99.90;;;;;;4982675;28;19934;-78
2022/07/25 05:06:10;;;;;;;;;;;20.50;99.90;;;;;;4970066;28;19930;-78
2022/07/25 05:08:38;;;;;;;;;;;20.60;99.90;;;;;;5087496;23;19963;-75
2022/07/25 05:11:04;;;;;;;;;;;20.60;99.90;;;;;;4961181;28;19925;-79
2022/07/25 05:13:32;;;;;;;;;;;20.60;99.90;;;;;;4977299;28;19987;-79
2022/07/25 05:15:58;;;;;;;;;;;20.60;99.90;;;;;;4955745;28;20028;-81
2022/07/25 05:18:28;;;;;;;;;;;20.70;99.90;;;;;;4970580;28;20331;-84
2022/07/25 05:20:55;;;;;;;;;;;20.70;99.90;;;;;;4968040;28;19926;-79
2022/07/25 05:23:55;;;;;;;;;;;20.80;99.90;;;;;;4966509;28;20060;-80
2022/07/25 05:26:22;;;;;;;;;;;20.80;99.90;;;;;;4971918;28;19926;-80
2022/07/25 05:28:49;;;;;;;;;;;20.80;99.90;;;;;;4965027;28;19934;-78
2022/07/25 05:31:15;;;;;;;;;;;20.90;99.90;;;;;;4981837;28;20296;-81
2022/07/25 05:33:42;;;;;;;;;;;21.00;99.90;;;;;;4966071;28;20624;-77
2022/07/25 05:36:08;;;;;;;;;;;21.00;99.90;;;;;;4985859;28;20378;-77
2022/07/25 05:38:34;;;;;;;;;;;21.10;99.90;;;;;;4965230;28;19980;-74
2022/07/25 05:41:00;;;;;;;;;;;21.10;99.90;;;;;;4960163;28;19922;-77
2022/07/25 05:43:26;;;;;;;;;;;21.10;99.90;;;;;;4972409;28;19925;-78
2022/07/25 05:45:52;;;;;;;;;;;21.10;99.90;;;;;;4975219;28;19941;-77
2022/07/25 05:48:18;;;;;;;;;;;21.20;99.90;;;;;;4939072;28;19926;-77
2022/07/25 05:50:44;;;;;;;;;;;21.10;99.90;;;;;;4973105;28;20033;-76
2022/07/25 05:53:11;;;;;;;;;;;21.20;99.90;;;;;;4955834;28;19926;-76
2022/07/25 05:55:36;;;;;;;;;;;21.20;99.90;;;;;;4966419;28;19932;-76
2022/07/25 05:58:02;;;;;;;;;;;21.20;99.90;;;;;;4983792;28;19929;-79
2022/07/25 06:00:28;;;;;;;;;;;21.20;99.90;;;;;;4955313;28;20301;-80
2022/07/25 06:02:59;;;;;;;;;;;21.20;99.90;;;;;;4970420;28;19937;-81
2022/07/25 06:05:25;;;;;;;;;;;21.20;99.90;;;;;;4989492;28;20004;-77
2022/07/25 06:07:50;;;;;;;;;;;21.30;99.90;;;;;;4986697;28;19929;-76
2022/07/25 06:10:17;;;;;;;;;;;21.30;99.90;;;;;;4972950;28;19988;-76
2022/07/25 06:12:52;;;;;;;;;;;21.30;99.90;;;;;;4974324;28;19956;-76
2022/07/25 06:18:21;;;;;;;;;;;21.50;99.90;;;;;;4996418;28;20422;-78
2022/07/25 06:24:09;;;;;;;;;;;21.80;99.90;;;;;;4996566;28;19936;-76
2022/07/25 06:29:57;;;;;;;;;;;22.00;99.90;;;;;;4995940;28;19921;-77
2022/07/25 06:35:45;;;;;;;;;;;22.10;99.90;;;;;;4995835;28;19921;-81
2022/07/25 06:41:33;;;;;;;;;;;22.10;99.90;;;;;;4995533;28;19924;-76
2022/07/25 06:47:20;;;;;;;;;;;22.30;99.90;;;;;;4995468;28;19921;-76
2022/07/25 06:53:13;;;;;;;;;;;23.20;99.90;;;;;;4996015;28;19945;-76
2022/07/25 06:59:01;;;;;;;;;;;24.70;99.90;;;;;;5014719;23;19940;-79
2022/07/25 07:01:27;;;;;;;;;;;25.40;99.90;;;;;;4980525;28;19925;-77
2022/07/25 07:04:05;;;;;;;;;;;25.70;99.90;;;;;;4988703;28;20476;-81
2022/07/25 07:06:31;;;;;;;;;;;25.60;99.90;;;;;;4993841;28;20522;-75
2022/07/25 07:09:03;;;;;;;;;;;25.60;99.90;;;;;;4974961;28;19987;-77
2022/07/25 07:14:21;;;;;;;;;;;25.10;99.90;;;;;;4976340;28;19961;-76
2022/07/25 07:16:47;;;;;;;;;;;24.80;99.90;;;;;;4950745;28;20032;-80
2022/07/25 07:19:13;;;;;;;;;;;24.60;99.90;;;;;;4961645;28;20424;-79
2022/07/25 07:21:40;;;;;;;;;;;24.40;99.90;;;;;;4949154;28;20361;-76
2022/07/25 07:24:06;;;;;;;;;;;24.20;99.90;;;;;;4960034;28;19926;-77
2022/07/25 07:26:51;;;;;;;;;;;24.00;99.90;;;;;;4968072;28;19957;-77
2022/07/25 07:29:17;;;;;;;;;;;23.90;99.90;;;;;;4937090;28;19930;-78
2022/07/25 07:31:46;;;;;;;;;;;23.90;99.90;;;;;;4960059;28;19937;-80
2022/07/25 07:34:13;;;;;;;;;;;23.90;99.90;;;;;;4927664;28;20376;-79
2022/07/25 07:36:39;;;;;;;;;;;23.90;99.90;;;;;;4957831;28;19926;-78
2022/07/25 07:39:05;;;;;;;;;;;23.80;99.90;;;;;;4958211;28;20077;-77
2022/07/25 07:41:49;;;;;;;;;;;23.80;99.90;;;;;;4945188;28;20319;-79
2022/07/25 07:44:15;;;;;;;;;;;23.90;99.90;;;;;;4942468;28;20028;-79
2022/07/25 07:46:42;;;;;;;;;;;24.00;99.90;;;;;;4947494;28;20016;-81
2022/07/25 07:49:09;;;;;;;;;;;24.20;99.90;;;;;;4941950;28;20518;-78
2022/07/25 07:51:35;;;;;;;;;;;24.20;99.90;;;;;;4934816;28;20045;-78
2022/07/25 07:56:52;;;;;;;;;;;24.20;99.90;;;;;;4954647;28;19948;-81
2022/07/25 07:59:19;;;;;;;;;;;24.50;99.90;;;;;;4949308;28;19930;-82
2022/07/25 08:01:48;;;;;;;;;;;24.60;99.90;;;;;;4939909;28;19930;-80
2022/07/25 08:04:15;;;;;;;;;;;24.50;99.90;;;;;;4955501;28;19934;-79
2022/07/25 08:06:42;;;;;;;;;;;24.40;99.90;;;;;;4940711;28;20225;-80
2022/07/25 08:09:08;;;;;;;;;;;24.40;99.90;;;;;;4952180;28;19926;-80
2022/07/25 08:11:34;;;;;;;;;;;24.30;99.90;;;;;;4955731;28;19940;-79
2022/07/25 08:14:00;;;;;;;;;;;24.20;99.90;;;;;;4939411;28;19930;-80
2022/07/25 08:16:26;;;;;;;;;;;24.00;99.90;;;;;;4928350;28;19981;-79
2022/07/25 08:18:52;;;;;;;;;;;24.10;99.90;;;;;;4931756;28;20336;-79
2022/07/25 08:21:18;;;;;;;;;;;24.00;99.90;;;;;;4928370;28;19981;-80
2022/07/25 08:23:45;;;;;;;;;;;24.00;99.90;;;;;;4960049;28;20028;-78
2022/07/25 08:26:14;;;;;;;;;;;24.00;99.90;;;;;;4958148;28;19926;-78
2022/07/25 08:28:41;;;;;;;;;;;23.90;99.90;;;;;;4937264;28;19977;-79
2022/07/25 08:31:06;;;;;;;;;;;24.00;99.90;;;;;;4952420;28;19977;-80
2022/07/25 08:33:38;;;;;;;;;;;24.00;99.90;;;;;;4964471;28;19934;-79
2022/07/25 08:36:04;;;;;;;;;;;24.00;99.90;;;;;;4944581;28;20052;-80
2022/07/25 08:38:31;;;;;;;;;;;24.00;99.90;;;;;;4958266;28;19933;-79
2022/07/25 08:40:58;;;;;;;;;;;24.10;99.90;;;;;;4945865;28;20416;-80
2022/07/25 08:43:24;;;;;;;;;;;24.00;99.90;;;;;;4939480;28;19930;-79
2022/07/25 08:45:54;;;;;;;;;;;24.00;99.90;;;;;;4968992;28;19930;-79
2022/07/25 08:48:21;;;;;;;;;;;23.90;99.90;;;;;;4969640;28;19926;-79
2022/07/25 08:51:03;;;;;;;;;;;23.80;99.90;;;;;;4950425;28;19936;-78
2022/07/25 08:53:29;;;;;;;;;;;23.70;99.90;;;;;;4952298;28;19930;-79
2022/07/25 08:55:55;;;;;;;;;;;23.60;99.90;;;;;;4952761;28;19932;-78
2022/07/25 08:58:21;;;;;;;;;;;23.50;99.90;;;;;;4925821;28;19957;-79
2022/07/25 09:00:50;;;;;;;;;;;23.40;99.90;;;;;;4951998;28;20175;-80
2022/07/25 09:03:17;;;;;;;;;;;23.30;99.90;;;;;;4926362;28;19926;-80
2022/07/25 09:05:43;;;;;;;;;;;23.30;99.90;;;;;;4936664;28;19934;-78
2022/07/25 09:08:27;;;;;;;;;;;23.20;99.90;;;;;;4957057;28;19998;-78
2022/07/25 09:10:55;;;;;;;;;;;23.10;99.90;;;;;;4957101;28;19941;-79
2022/07/25 09:13:22;;;;;;;;;;;23.20;99.90;;;;;;4956711;28;19930;-79
2022/07/25 09:15:52;;;;;;;;;;;23.30;99.90;;;;;;4950163;28;20412;-79
2022/07/25 09:18:22;;;;;;;;;;;23.20;99.90;;;;;;4953746;28;20045;-80
2022/07/25 09:20:58;;;;;;;;;;;23.20;99.90;;;;;;4955911;28;19953;-79
2022/07/25 09:23:35;;;;;;;;;;;23.20;99.90;;;;;;4973389;28;19926;-80
2022/07/25 09:26:02;;;;;;;;;;;23.10;99.90;;;;;;4950020;28;19925;-81
2022/07/25 09:28:28;;;;;;;;;;;23.10;99.90;;;;;;4951574;28;19929;-79
2022/07/25 09:30:55;;;;;;;;;;;23.40;99.90;;;;;;4935565;28;19929;-80
2022/07/25 09:33:24;;;;;;;;;;;23.50;99.90;;;;;;4945427;28;20336;-79
2022/07/25 09:35:50;;;;;;;;;;;23.80;99.90;;;;;;4945009;28;20440;-79
2022/07/25 09:38:17;;;;;;;;;;;23.80;99.90;;;;;;4956926;28;19985;-78
2022/07/25 09:41:03;;;;;;;;;;;24.00;99.90;;;;;;4954155;28;19937;-79
2022/07/25 09:43:36;;;;;;;;;;;24.10;99.90;;;;;;4940158;28;20446;-80
2022/07/25 09:46:02;;;;;;;;;;;24.20;99.90;;;;;;4964986;28;19930;-79
2022/07/25 09:48:29;;;;;;;;;;;24.20;99.90;;;;;;4943607;28;20008;-79
2022/07/25 09:50:57;;;;;;;;;;;24.20;99.90;;;;;;4938989;28;20404;-80
2022/07/25 09:53:23;;;;;;;;;;;24.30;99.90;;;;;;4953483;28;19965;-80
2022/07/25 09:55:49;;;;;;;;;;;24.50;99.90;;;;;;4962163;28;19948;-79
2022/07/25 09:58:14;;;;;;;;;;;24.70;99.90;;;;;;4942007;28;19930;-78
2022/07/25 10:00:41;;;;;;;;;;;24.80;99.90;;;;;;4954188;28;19925;-78
2022/07/25 10:03:14;;;;;;;;;;;24.80;99.90;;;;;;4960725;28;20333;-82
2022/07/25 10:05:50;;;;;;;;;;;24.70;99.90;;;;;;4944201;28;19954;-79
2022/07/25 10:08:28;;;;;;;;;;;24.70;99.90;;;;;;4959582;28;20062;-79
2022/07/25 10:10:55;;;;;;;;;;;24.70;99.90;;;;;;4955752;28;19941;-80
2022/07/25 10:13:29;;;;;;;;;;;24.70;99.90;;;;;;4966233;28;19965;-77
2022/07/25 10:15:57;;;;;;;;;;;24.60;99.90;;;;;;4960018;28;20021;-79
2022/07/25 10:18:24;;;;;;;;;;;24.70;99.90;;;;;;4949763;28;20040;-80
2022/07/25 10:20:52;;;;;;;;;;;24.80;99.90;;;;;;4955053;28;20024;-78
2022/07/25 10:23:26;;;;;;;;;;;24.70;99.90;;;;;;4965934;28;19932;-79
2022/07/25 10:26:03;;;;;;;;;;;24.50;99.90;;;;;;4953084;28;20037;-79
2022/07/25 10:28:36;;;;;;;;;;;24.30;99.90;;;;;;4948818;28;20122;-80
2022/07/25 10:31:16;;;;;;;;;;;24.00;99.90;;;;;;4965572;28;19926;-78
2022/07/25 10:33:42;;;;;;;;;;;23.90;99.90;;;;;;4963757;28;20266;-79
2022/07/25 10:36:09;;;;;;;;;;;23.80;99.90;;;;;;4962023;28;19933;-79
2022/07/25 10:38:38;;;;;;;;;;;23.70;99.90;;;;;;4966595;28;20313;-79
2022/07/25 10:41:04;;;;;;;;;;;23.60;99.90;;;;;;4956917;28;19993;-80
2022/07/25 10:43:35;;;;;;;;;;;23.60;99.90;;;;;;4969426;28;20439;-79
2022/07/25 10:46:01;;;;;;;;;;;23.50;99.90;;;;;;4961344;28;19930;-78
2022/07/25 10:48:28;;;;;;;;;;;23.50;99.90;;;;;;4967103;28;19922;-80
2022/07/25 10:50:58;;;;;;;;;;;23.50;99.90;;;;;;4967971;28;19930;-79
2022/07/25 10:53:32;;;;;;;;;;;23.50;99.90;;;;;;4944249;28;19938;-80
2022/07/25 10:56:02;;;;;;;;;;;23.50;99.90;;;;;;4958750;28;20168;-84
2022/07/25 10:58:50;;;;;;;;;;;23.50;99.90;;;;;;4939745;28;19954;-77
2022/07/25 11:01:38;;;;;;;;;;;23.40;99.90;;;;;;4976246;28;19932;-80
2022/07/25 11:04:05;;;;;;;;;;;23.40;99.90;;;;;;4948312;28;19933;-79
2022/07/25 11:06:35;;;;;;;;;;;23.30;99.90;;;;;;4971305;28;19977;-78
2022/07/25 11:09:22;;;;;;;;;;;23.30;99.90;;;;;;4940235;28;19942;-78
2022/07/25 11:11:50;;;;;;;;;;;23.60;99.90;;;;;;5026056;23;19977;-79
2022/07/25 11:14:16;;;;;;;;;;;23.60;99.90;;;;;;4935107;28;20013;-77
2022/07/25 11:16:43;;;;;;;;;;;23.80;99.90;;;;;;4951614;28;20073;-78
2022/07/25 11:19:35;;;;;;;;;;;23.90;99.90;;;;;;4946926;28;20372;-82
2022/07/25 11:22:03;;;;;;;;;;;23.90;99.90;;;;;;4930207;28;19981;-80
2022/07/25 11:24:36;;;;;;;;;;;23.90;99.90;;;;;;4931104;28;19974;-82
2022/07/25 11:27:02;;;;;;;;;;;24.20;99.90;;;;;;4919005;28;19926;-82
2022/07/25 11:29:27;;;;;;;;;;;24.30;99.90;;;;;;4948654;28;19981;-82
2022/07/25 11:31:55;;;;;;;;;;;24.30;99.90;;;;;;4948189;28;19977;-79
2022/07/25 11:34:23;;;;;;;;;;;24.30;99.90;;;;;;4936592;28;20010;-86
2022/07/25 11:36:49;;;;;;;;;;;24.20;99.90;;;;;;4952811;28;19972;-83
2022/07/25 11:39:17;;;;;;;;;;;24.10;99.90;;;;;;4935981;28;19934;-90
2022/07/25 11:41:43;;;;;;;;;;;24.00;99.90;;;;;;4935820;28;19972;-86
2022/07/25 11:44:09;;;;;;;;;;;23.90;99.90;;;;;;4935237;28;19934;-86
2022/07/25 11:46:42;;;;;;;;;;;23.90;99.90;;;;;;4950570;28;20415;-82
2022/07/25 11:49:08;;;;;;;;;;;23.90;99.90;;;;;;4969269;28;19954;-81
2022/07/25 11:51:35;;;;;;;;;;;24.00;99.90;;;;;;4950920;28;19934;-81
2022/07/25 11:54:06;;;;;;;;;;;24.10;99.90;;;;;;4947086;28;19930;-82
2022/07/25 11:56:36;;;;;;;;;;;24.20;99.90;;;;;;4964997;28;19976;-81
2022/07/25 11:59:01;;;;;;;;;;;24.30;99.90;;;;;;4932652;28;19937;-81
2022/07/25 12:01:37;;;;;;;;;;;24.10;99.90;;;;;;4966565;28;19930;-82
2022/07/25 12:04:21;;;;;;;;;;;24.00;99.90;;;;;;4949196;28;19926;-81
2022/07/25 12:06:49;;;;;;;;;;;23.70;99.90;;;;;;4967117;28;19938;-82
2022/07/25 12:09:16;;;;;;;;;;;23.50;99.90;;;;;;4950017;28;20144;-82
2022/07/25 12:11:43;;;;;;;;;;;23.40;99.90;;;;;;4949328;28;19929;-82
2022/07/25 12:14:09;;;;;;;;;;;23.50;99.90;;;;;;4946200;28;20993;-82
2022/07/25 12:16:35;;;;;;;;;;;23.40;99.90;;;;;;4950988;28;19997;-83
2022/07/25 12:19:02;;;;;;;;;;;23.40;99.90;;;;;;4952359;28;20308;-81
2022/07/25 12:21:28;;;;;;;;;;;23.50;99.90;;;;;;4950611;28;20389;-81
2022/07/25 12:23:54;;;;;;;;;;;23.50;99.90;;;;;;4935898;28;20002;-83
2022/07/25 12:26:19;;;;;;;;;;;23.50;99.90;;;;;;4934660;28;19976;-83
2022/07/25 12:28:45;;;;;;;;;;;23.50;99.90;;;;;;4949380;28;20384;-81
2022/07/25 12:31:11;;;;;;;;;;;23.50;99.90;;;;;;4949164;28;20382;-83
2022/07/25 12:33:37;;;;;;;;;;;23.60;99.90;;;;;;4916351;28;20439;-80
2022/07/25 12:36:03;;;;;;;;;;;23.70;99.90;;;;;;4934409;28;19926;-81
2022/07/25 12:38:29;;;;;;;;;;;23.60;99.90;;;;;;4969017;28;19926;-82
2022/07/25 12:40:54;;;;;;;;;;;23.70;99.90;;;;;;4951208;28;19926;-83
2022/07/25 12:43:20;;;;;;;;;;;23.70;99.90;;;;;;4949864;28;19926;-83
2022/07/25 12:45:46;;;;;;;;;;;23.70;99.90;;;;;;4963842;28;19937;-82
2022/07/25 12:48:13;;;;;;;;;;;23.60;99.90;;;;;;4949932;28;20010;-83
2022/07/25 12:50:40;;;;;;;;;;;23.60;99.90;;;;;;4924974;28;19949;-83
2022/07/25 12:53:05;;;;;;;;;;;23.70;99.90;;;;;;4949885;28;19933;-80
2022/07/25 12:55:31;;;;;;;;;;;23.60;99.90;;;;;;4948063;28;19926;-80
2022/07/25 12:57:57;;;;;;;;;;;23.60;99.90;;;;;;4930075;28;20289;-82
2022/07/25 13:00:23;;;;;;;;;;;23.50;99.90;;;;;;4917832;28;20425;-82
2022/07/25 13:02:54;;;;;;;;;;;23.50;99.90;;;;;;4949540;28;19933;-81
2022/07/25 13:05:21;;;;;;;;;;;23.40;99.90;;;;;;4950086;28;19934;-81
2022/07/25 13:07:48;;;;;;;;;;;23.40;99.90;;;;;;4950487;28;20017;-80
2022/07/25 13:10:13;;;;;;;;;;;23.50;99.90;;;;;;4949280;28;19965;-80
2022/07/25 13:12:39;;;;;;;;;;;23.50;99.90;;;;;;4961895;28;20254;-80
2022/07/25 13:15:05;;;;;;;;;;;23.50;99.90;;;;;;4936822;28;19937;-82
2022/07/25 13:17:31;;;;;;;;;;;23.60;99.90;;;;;;4950094;28;19930;-83
2022/07/25 13:19:57;;;;;;;;;;;23.60;99.90;;;;;;4949074;28;19936;-79
2022/07/25 13:22:24;;;;;;;;;;;23.60;99.90;;;;;;4947966;28;20500;-80
2022/07/25 13:24:50;;;;;;;;;;;23.60;99.90;;;;;;4945867;28;20803;-84
2022/07/25 13:27:19;;;;;;;;;;;23.50;99.90;;;;;;4931820;28;19933;-81
2022/07/25 13:29:45;;;;;;;;;;;23.40;99.90;;;;;;4930814;28;19990;-83
2022/07/25 13:32:12;;;;;;;;;;;23.30;99.90;;;;;;4951462;28;19926;-81
2022/07/25 13:34:38;;;;;;;;;;;23.20;99.90;;;;;;4968253;28;19937;-81
2022/07/25 13:37:04;;;;;;;;;;;23.20;99.90;;;;;;4936775;28;19933;-81
2022/07/25 13:39:30;;;;;;;;;;;23.10;99.90;;;;;;4951293;28;20028;-80
2022/07/25 13:41:56;;;;;;;;;;;23.10;99.90;;;;;;4936322;28;20025;-80
2022/07/25 13:44:21;;;;;;;;;;;23.00;99.90;;;;;;4951448;28;19933;-82
2022/07/25 13:46:50;;;;;;;;;;;22.90;99.90;;;;;;4918478;28;20282;-84
2022/07/25 13:49:16;;;;;;;;;;;22.90;99.90;;;;;;4919977;28;19922;-82
2022/07/25 13:51:44;;;;;;;;;;;22.90;99.90;;;;;;4952496;28;19932;-79
2022/07/25 13:54:10;;;;;;;;;;;22.90;99.90;;;;;;4936148;28;20692;-83
2022/07/25 13:56:36;;;;;;;;;;;22.60;99.90;;;;;;4951499;28;19934;-79
2022/07/25 13:59:03;;;;;;;;;;;22.80;99.90;;;;;;4930978;28;19941;-82
2022/07/25 14:01:29;;;;;;;;;;;22.80;99.90;;;;;;4934180;28;19926;-85
2022/07/25 14:03:55;;;;;;;;;;;22.70;99.90;;;;;;4937559;28;19934;-82
2022/07/25 14:06:21;;;;;;;;;;;22.70;99.90;;;;;;4953618;28;19955;-81
2022/07/25 14:08:47;;;;;;;;;;;22.70;99.90;;;;;;4951916;28;20081;-79
2022/07/25 14:11:12;;;;;;;;;;;22.70;99.90;;;;;;4966750;28;19959;-82
2022/07/25 14:13:38;;;;;;;;;;;22.70;99.90;;;;;;4918743;28;20364;-83
2022/07/25 14:16:04;;;;;;;;;;;22.70;99.90;;;;;;4920510;28;19977;-83
2022/07/25 14:18:31;;;;;;;;;;;22.70;99.90;;;;;;4923763;28;19930;-83
2022/07/25 14:20:57;;;;;;;;;;;22.70;99.90;;;;;;4935143;28;19968;-83
2022/07/25 14:23:23;;;;;;;;;;;22.70;99.90;;;;;;4918323;28;19926;-78
2022/07/25 14:25:49;;;;;;;;;;;22.90;99.90;;;;;;4935647;28;19930;-82
2022/07/25 14:28:15;;;;;;;;;;;23.00;99.90;;;;;;4936620;28;20485;-82
2022/07/25 14:30:41;;;;;;;;;;;23.10;99.90;;;;;;4917489;28;19973;-83
2022/07/25 14:33:07;;;;;;;;;;;23.10;99.90;;;;;;4937843;28;20024;-85
2022/07/25 14:35:33;;;;;;;;;;;23.00;99.90;;;;;;4952761;28;19993;-83
2022/07/25 14:37:59;;;;;;;;;;;22.90;99.90;;;;;;4934719;28;19930;-83
2022/07/25 14:40:25;;;;;;;;;;;22.90;99.90;;;;;;4934840;28;19984;-81
2022/07/25 14:42:51;;;;;;;;;;;22.90;99.90;;;;;;4934579;28;19976;-82
2022/07/25 14:45:17;;;;;;;;;;;22.90;99.90;;;;;;4950313;28;20009;-79
2022/07/25 14:47:43;;;;;;;;;;;22.90;99.90;;;;;;4952124;28;20290;-78
2022/07/25 14:50:09;;;;;;;;;;;22.90;99.90;;;;;;4952320;28;19941;-82
2022/07/25 14:52:35;;;;;;;;;;;22.90;99.90;;;;;;4950798;28;20029;-81
2022/07/25 14:55:01;;;;;;;;;;;23.00;99.90;;;;;;4935558;28;20012;-82
2022/07/25 14:57:27;;;;;;;;;;;23.10;99.90;;;;;;4955353;28;20326;-85